LiveATC.Net - Listen to live air traffic control over the Internet! Contact for advertising information

ICAO: MMMY  IATA: MTY   Airport: General Mariano Escobedo International Airport
City: Monterrey
Country: Mexico   Continent: North America
MMMY METAR Weather: MMMY 261145Z 11006KT 5SM BKN010 OVC030 20/18 A2999 RMK SLP171 53012 913 8/5// HZY
MMMY Flight Activity (FlightAware)
MMMY Tower/Approach
Feed Status: UP   Listeners: 2
Listen right in your browser - requires Flash (in browser, requires Flash)
Click here to listen with your own player (launches your MP3 player)
MMMY Tower/Approach Audio Archives
Monterrey Approach/Departure119.750
Monterrey Tower118.100


Unauthorized use prohibited. See Terms of Service

Find LiveATC Audio Streams

Airport/ARTCC Code

(e.g., 124.400, 128.75)
Site-wide search

Browse LiveATC Feeds
LiveATC Coverage Map
Top 50 LiveATC Feeds
Bad Weather Areas

Offer a LiveATC Feed
Press Inquiries

LiveATC on iPhone
LiveATC on Android

Windows Phone
Windows 8/10

LiveATC Mobile
(Mobile browser)

ATC Audio Archives
Interesting Recordings

LiveATC Forums

Home Page
Make a Donation
LiveATC Bookstore

Terms of Use
Privacy Policy

ATC/Radar Sites
U.S. ARTCC Freqs
Canadian Air Freqs


FAA Airport Status
Nat'l Airspace Status
Arrival Demand Charts

Server Software By:

Please make a donation to help us keep growing!